sensor_id;sensor_type;location;lat;lon;timestamp;P1;durP1;ratioP1;P2;durP2;ratioP2
31906;SDS011;18455;50.858;13.662;2023-05-07T00:04:43;13.77;;;9.17;;
31906;SDS011;18455;50.858;13.662;2023-05-07T00:09:44;13.87;;;9.33;;
31906;SDS011;18455;50.858;13.662;2023-05-07T00:14:44;12.77;;;9.67;;
31906;SDS011;18455;50.858;13.662;2023-05-07T00:19:45;14.53;;;10.30;;
31906;SDS011;18455;50.858;13.662;2023-05-07T00:24:46;14.13;;;10.10;;
31906;SDS011;18455;50.858;13.662;2023-05-07T00:29:47;15.17;;;12.03;;
31906;SDS011;18455;50.858;13.662;2023-05-07T00:34:47;20.97;;;14.67;;
31906;SDS011;18455;50.858;13.662;2023-05-07T00:39:47;22.80;;;15.53;;
31906;SDS011;18455;50.858;13.662;2023-05-07T00:44:48;21.03;;;12.00;;
31906;SDS011;18455;50.858;13.662;2023-05-07T00:49:48;21.47;;;15.20;;
31906;SDS011;18455;50.858;13.662;2023-05-07T00:54:48;24.07;;;15.57;;
31906;SDS011;18455;50.858;13.662;2023-05-07T00:59:50;25.40;;;14.20;;
31906;SDS011;18455;50.858;13.662;2023-05-07T01:04:51;26.47;;;15.57;;
31906;SDS011;18455;50.858;13.662;2023-05-07T01:09:52;23.37;;;14.23;;
31906;SDS011;18455;50.858;13.662;2023-05-07T01:14:52;23.77;;;13.23;;
31906;SDS011;18455;50.858;13.662;2023-05-07T01:19:54;19.23;;;13.67;;
31906;SDS011;18455;50.858;13.662;2023-05-07T01:24:55;23.17;;;14.47;;
31906;SDS011;18455;50.858;13.662;2023-05-07T01:29:56;20.30;;;13.27;;
31906;SDS011;18455;50.858;13.662;2023-05-07T01:34:57;17.90;;;13.40;;
31906;SDS011;18455;50.858;13.662;2023-05-07T01:39:58;19.13;;;13.10;;
31906;SDS011;18455;50.858;13.662;2023-05-07T01:44:59;22.57;;;15.03;;
31906;SDS011;18455;50.858;13.662;2023-05-07T01:49:59;22.00;;;14.13;;
31906;SDS011;18455;50.858;13.662;2023-05-07T01:55:00;25.27;;;15.50;;
31906;SDS011;18455;50.858;13.662;2023-05-07T02:00:01;22.47;;;15.33;;
31906;SDS011;18455;50.858;13.662;2023-05-07T02:05:03;25.73;;;16.10;;
31906;SDS011;18455;50.858;13.662;2023-05-07T02:10:04;28.47;;;17.23;;
31906;SDS011;18455;50.858;13.662;2023-05-07T02:15:05;32.60;;;18.53;;
31906;SDS011;18455;50.858;13.662;2023-05-07T02:20:06;25.53;;;16.10;;
31906;SDS011;18455;50.858;13.662;2023-05-07T02:25:13;26.73;;;17.43;;
31906;SDS011;18455;50.858;13.662;2023-05-07T02:30:13;26.90;;;17.60;;
31906;SDS011;18455;50.858;13.662;2023-05-07T02:35:14;26.67;;;17.13;;
31906;SDS011;18455;50.858;13.662;2023-05-07T02:40:14;23.33;;;15.57;;
31906;SDS011;18455;50.858;13.662;2023-05-07T02:45:15;31.03;;;18.73;;
31906;SDS011;18455;50.858;13.662;2023-05-07T02:50:16;30.03;;;19.03;;
31906;SDS011;18455;50.858;13.662;2023-05-07T02:55:17;27.57;;;18.37;;
31906;SDS011;18455;50.858;13.662;2023-05-07T03:00:18;25.83;;;16.37;;
31906;SDS011;18455;50.858;13.662;2023-05-07T03:05:27;22.73;;;14.53;;
31906;SDS011;18455;50.858;13.662;2023-05-07T03:10:27;28.53;;;16.23;;
31906;SDS011;18455;50.858;13.662;2023-05-07T03:15:28;26.53;;;16.73;;
31906;SDS011;18455;50.858;13.662;2023-05-07T03:20:28;28.20;;;18.77;;
31906;SDS011;18455;50.858;13.662;2023-05-07T03:25:29;24.97;;;16.47;;
31906;SDS011;18455;50.858;13.662;2023-05-07T03:30:32;23.63;;;16.60;;
31906;SDS011;18455;50.858;13.662;2023-05-07T03:35:33;30.33;;;16.33;;
31906;SDS011;18455;50.858;13.662;2023-05-07T03:40:33;28.00;;;16.53;;
31906;SDS011;18455;50.858;13.662;2023-05-07T03:45:35;22.43;;;15.00;;
31906;SDS011;18455;50.858;13.662;2023-05-07T03:50:43;23.53;;;15.50;;
31906;SDS011;18455;50.858;13.662;2023-05-07T03:55:43;28.73;;;16.43;;
31906;SDS011;18455;50.858;13.662;2023-05-07T04:00:44;28.33;;;19.43;;
31906;SDS011;18455;50.858;13.662;2023-05-07T04:05:54;30.73;;;20.33;;
31906;SDS011;18455;50.858;13.662;2023-05-07T04:10:56;26.63;;;17.80;;
31906;SDS011;18455;50.858;13.662;2023-05-07T04:15:58;27.90;;;18.87;;
31906;SDS011;18455;50.858;13.662;2023-05-07T04:21:00;30.10;;;20.27;;
31906;SDS011;18455;50.858;13.662;2023-05-07T04:26:00;27.60;;;18.13;;
31906;SDS011;18455;50.858;13.662;2023-05-07T04:31:09;31.53;;;18.67;;
31906;SDS011;18455;50.858;13.662;2023-05-07T04:36:11;24.73;;;15.63;;
31906;SDS011;18455;50.858;13.662;2023-05-07T04:41:18;21.93;;;14.60;;
31906;SDS011;18455;50.858;13.662;2023-05-07T04:46:19;18.77;;;13.37;;
31906;SDS011;18455;50.858;13.662;2023-05-07T04:51:20;21.40;;;13.63;;
31906;SDS011;18455;50.858;13.662;2023-05-07T04:56:21;18.33;;;13.53;;
31906;SDS011;18455;50.858;13.662;2023-05-07T05:01:21;20.23;;;13.77;;
31906;SDS011;18455;50.858;13.662;2023-05-07T05:06:22;19.53;;;13.77;;
31906;SDS011;18455;50.858;13.662;2023-05-07T05:11:24;20.10;;;14.80;;
31906;SDS011;18455;50.858;13.662;2023-05-07T05:16:25;19.57;;;13.23;;
31906;SDS011;18455;50.858;13.662;2023-05-07T05:21:26;18.93;;;13.23;;
31906;SDS011;18455;50.858;13.662;2023-05-07T05:26:32;19.00;;;13.80;;
31906;SDS011;18455;50.858;13.662;2023-05-07T05:31:32;18.33;;;13.27;;
31906;SDS011;18455;50.858;13.662;2023-05-07T05:36:33;21.57;;;14.60;;
31906;SDS011;18455;50.858;13.662;2023-05-07T05:41:35;18.10;;;13.10;;
31906;SDS011;18455;50.858;13.662;2023-05-07T05:46:36;16.87;;;12.23;;
31906;SDS011;18455;50.858;13.662;2023-05-07T05:51:37;18.83;;;11.53;;
31906;SDS011;18455;50.858;13.662;2023-05-07T05:56:38;17.93;;;11.10;;
31906;SDS011;18455;50.858;13.662;2023-05-07T06:01:39;14.20;;;10.27;;
31906;SDS011;18455;50.858;13.662;2023-05-07T06:06:39;11.83;;;9.57;;
31906;SDS011;18455;50.858;13.662;2023-05-07T06:11:40;12.27;;;9.43;;
31906;SDS011;18455;50.858;13.662;2023-05-07T06:16:41;11.57;;;9.10;;
31906;SDS011;18455;50.858;13.662;2023-05-07T06:21:42;11.27;;;8.40;;
31906;SDS011;18455;50.858;13.662;2023-05-07T06:26:42;13.50;;;7.37;;
31906;SDS011;18455;50.858;13.662;2023-05-07T06:31:43;12.57;;;9.40;;
31906;SDS011;18455;50.858;13.662;2023-05-07T06:36:45;10.33;;;8.40;;
31906;SDS011;18455;50.858;13.662;2023-05-07T06:41:54;10.63;;;7.57;;
31906;SDS011;18455;50.858;13.662;2023-05-07T06:46:59;11.80;;;8.87;;
31906;SDS011;18455;50.858;13.662;2023-05-07T06:52:00;10.53;;;8.60;;
31906;SDS011;18455;50.858;13.662;2023-05-07T06:57:01;13.13;;;8.83;;
31906;SDS011;18455;50.858;13.662;2023-05-07T07:02:02;11.57;;;8.90;;
31906;SDS011;18455;50.858;13.662;2023-05-07T07:07:03;12.07;;;8.10;;
31906;SDS011;18455;50.858;13.662;2023-05-07T07:12:03;11.07;;;8.33;;
31906;SDS011;18455;50.858;13.662;2023-05-07T07:17:05;11.20;;;7.93;;
31906;SDS011;18455;50.858;13.662;2023-05-07T07:22:05;10.67;;;7.90;;
31906;SDS011;18455;50.858;13.662;2023-05-07T07:27:06;12.60;;;8.00;;
31906;SDS011;18455;50.858;13.662;2023-05-07T07:32:08;11.00;;;8.13;;
31906;SDS011;18455;50.858;13.662;2023-05-07T07:37:09;8.17;;;6.40;;
31906;SDS011;18455;50.858;13.662;2023-05-07T07:42:11;7.97;;;6.30;;
31906;SDS011;18455;50.858;13.662;2023-05-07T07:47:12;7.80;;;5.70;;
31906;SDS011;18455;50.858;13.662;2023-05-07T07:52:13;6.27;;;5.57;;
31906;SDS011;18455;50.858;13.662;2023-05-07T07:57:14;9.77;;;8.30;;
31906;SDS011;18455;50.858;13.662;2023-05-07T08:02:15;7.80;;;5.97;;
31906;SDS011;18455;50.858;13.662;2023-05-07T08:07:16;6.70;;;5.60;;
31906;SDS011;18455;50.858;13.662;2023-05-07T08:12:20;8.20;;;5.63;;
31906;SDS011;18455;50.858;13.662;2023-05-07T08:17:20;7.13;;;6.10;;
31906;SDS011;18455;50.858;13.662;2023-05-07T08:22:22;7.53;;;6.47;;
31906;SDS011;18455;50.858;13.662;2023-05-07T08:27:24;6.00;;;5.10;;
31906;SDS011;18455;50.858;13.662;2023-05-07T08:32:24;8.07;;;6.40;;
31906;SDS011;18455;50.858;13.662;2023-05-07T08:37:25;10.40;;;7.10;;
31906;SDS011;18455;50.858;13.662;2023-05-07T08:42:26;9.87;;;7.07;;
31906;SDS011;18455;50.858;13.662;2023-05-07T08:47:29;8.37;;;6.53;;
31906;SDS011;18455;50.858;13.662;2023-05-07T08:52:36;8.27;;;6.20;;
31906;SDS011;18455;50.858;13.662;2023-05-07T08:57:36;7.13;;;6.27;;
31906;SDS011;18455;50.858;13.662;2023-05-07T09:02:38;7.83;;;5.93;;
31906;SDS011;18455;50.858;13.662;2023-05-07T09:07:40;6.50;;;5.77;;
31906;SDS011;18455;50.858;13.662;2023-05-07T09:12:41;7.70;;;6.20;;
31906;SDS011;18455;50.858;13.662;2023-05-07T09:17:44;8.90;;;6.30;;
31906;SDS011;18455;50.858;13.662;2023-05-07T09:22:44;8.10;;;5.90;;
31906;SDS011;18455;50.858;13.662;2023-05-07T09:27:48;6.67;;;5.70;;
31906;SDS011;18455;50.858;13.662;2023-05-07T09:32:49;5.87;;;5.30;;
31906;SDS011;18455;50.858;13.662;2023-05-07T09:37:53;8.47;;;6.30;;
31906;SDS011;18455;50.858;13.662;2023-05-07T09:42:55;6.03;;;5.40;;
31906;SDS011;18455;50.858;13.662;2023-05-07T09:47:57;5.20;;;4.70;;
31906;SDS011;18455;50.858;13.662;2023-05-07T09:53:00;5.30;;;4.80;;
31906;SDS011;18455;50.858;13.662;2023-05-07T09:58:01;6.07;;;5.47;;
31906;SDS011;18455;50.858;13.662;2023-05-07T10:03:03;5.27;;;4.77;;
31906;SDS011;18455;50.858;13.662;2023-05-07T10:08:13;6.70;;;5.57;;
31906;SDS011;18455;50.858;13.662;2023-05-07T10:13:18;11.00;;;6.53;;
31906;SDS011;18455;50.858;13.662;2023-05-07T10:18:21;7.97;;;6.40;;
31906;SDS011;18455;50.858;13.662;2023-05-07T10:23:32;8.17;;;6.70;;
31906;SDS011;18455;50.858;13.662;2023-05-07T10:28:36;8.23;;;7.23;;
31906;SDS011;18455;50.858;13.662;2023-05-07T10:33:40;10.10;;;7.30;;
31906;SDS011;18455;50.858;13.662;2023-05-07T10:38:42;8.57;;;7.53;;
31906;SDS011;18455;50.858;13.662;2023-05-07T10:43:44;6.77;;;5.90;;
31906;SDS011;18455;50.858;13.662;2023-05-07T10:49:06;6.80;;;5.13;;
31906;SDS011;18455;50.858;13.662;2023-05-07T10:59:32;7.40;;;5.53;;
31906;SDS011;18455;50.858;13.662;2023-05-07T11:04:42;7.17;;;5.77;;
31906;SDS011;18455;50.858;13.662;2023-05-07T11:14:53;7.27;;;5.77;;
31906;SDS011;18455;50.858;13.662;2023-05-07T11:19:59;8.50;;;6.73;;
31906;SDS011;18455;50.858;13.662;2023-05-07T11:25:19;6.77;;;5.77;;
31906;SDS011;18455;50.858;13.662;2023-05-07T11:30:22;7.30;;;6.60;;
31906;SDS011;18455;50.858;13.662;2023-05-07T11:35:23;6.73;;;5.53;;
31906;SDS011;18455;50.858;13.662;2023-05-07T11:40:25;7.57;;;6.03;;
31906;SDS011;18455;50.858;13.662;2023-05-07T11:45:25;6.18;;;5.10;;
31906;SDS011;18455;50.858;13.662;2023-05-07T11:50:26;6.25;;;5.65;;
31906;SDS011;18455;50.858;13.662;2023-05-07T11:55:26;5.90;;;5.30;;
31906;SDS011;18455;50.858;13.662;2023-05-07T12:00:26;6.18;;;5.57;;
31906;SDS011;18455;50.858;13.662;2023-05-07T12:05:27;7.07;;;5.45;;
31906;SDS011;18455;50.858;13.662;2023-05-07T12:10:28;7.28;;;5.07;;
31906;SDS011;18455;50.858;13.662;2023-05-07T12:15:29;5.43;;;4.93;;
31906;SDS011;18455;50.858;13.662;2023-05-07T12:20:29;5.85;;;5.30;;
31906;SDS011;18455;50.858;13.662;2023-05-07T12:25:30;7.10;;;6.10;;
31906;SDS011;18455;50.858;13.662;2023-05-07T12:30:38;6.53;;;5.60;;
31906;SDS011;18455;50.858;13.662;2023-05-07T12:35:39;7.13;;;5.78;;
31906;SDS011;18455;50.858;13.662;2023-05-07T12:40:42;8.98;;;5.63;;
31906;SDS011;18455;50.858;13.662;2023-05-07T12:45:44;6.35;;;5.70;;
31906;SDS011;18455;50.858;13.662;2023-05-07T12:50:45;6.30;;;5.47;;
31906;SDS011;18455;50.858;13.662;2023-05-07T12:55:46;6.32;;;5.72;;
31906;SDS011;18455;50.858;13.662;2023-05-07T13:00:48;7.18;;;6.03;;
31906;SDS011;18455;50.858;13.662;2023-05-07T13:05:49;6.78;;;5.88;;
31906;SDS011;18455;50.858;13.662;2023-05-07T13:10:50;6.07;;;5.20;;
31906;SDS011;18455;50.858;13.662;2023-05-07T13:15:50;11.45;;;5.88;;
31906;SDS011;18455;50.858;13.662;2023-05-07T13:20:51;9.05;;;6.35;;
31906;SDS011;18455;50.858;13.662;2023-05-07T13:25:51;12.98;;;7.32;;
31906;SDS011;18455;50.858;13.662;2023-05-07T13:30:55;6.13;;;5.53;;
31906;SDS011;18455;50.858;13.662;2023-05-07T13:35:56;6.65;;;6.05;;
31906;SDS011;18455;50.858;13.662;2023-05-07T13:40:57;7.70;;;6.20;;
31906;SDS011;18455;50.858;13.662;2023-05-07T13:45:57;6.60;;;6.00;;
31906;SDS011;18455;50.858;13.662;2023-05-07T13:50:57;6.72;;;6.13;;
31906;SDS011;18455;50.858;13.662;2023-05-07T13:55:58;6.65;;;5.95;;
31906;SDS011;18455;50.858;13.662;2023-05-07T14:00:58;8.90;;;6.75;;
31906;SDS011;18455;50.858;13.662;2023-05-07T14:05:59;7.30;;;6.60;;
31906;SDS011;18455;50.858;13.662;2023-05-07T14:11:01;8.00;;;6.90;;
31906;SDS011;18455;50.858;13.662;2023-05-07T14:16:02;9.23;;;6.88;;
31906;SDS011;18455;50.858;13.662;2023-05-07T14:21:04;7.15;;;6.32;;
31906;SDS011;18455;50.858;13.662;2023-05-07T14:26:06;8.05;;;6.80;;
31906;SDS011;18455;50.858;13.662;2023-05-07T14:31:06;6.38;;;5.78;;
31906;SDS011;18455;50.858;13.662;2023-05-07T14:36:06;6.95;;;5.80;;
31906;SDS011;18455;50.858;13.662;2023-05-07T14:41:07;5.93;;;5.32;;
31906;SDS011;18455;50.858;13.662;2023-05-07T14:46:07;5.85;;;5.25;;
31906;SDS011;18455;50.858;13.662;2023-05-07T14:51:07;9.15;;;6.13;;
31906;SDS011;18455;50.858;13.662;2023-05-07T14:56:08;7.43;;;5.25;;
31906;SDS011;18455;50.858;13.662;2023-05-07T15:01:08;7.13;;;5.75;;
31906;SDS011;18455;50.858;13.662;2023-05-07T15:06:09;5.80;;;5.10;;
31906;SDS011;18455;50.858;13.662;2023-05-07T15:11:09;8.07;;;5.50;;
31906;SDS011;18455;50.858;13.662;2023-05-07T15:16:09;7.45;;;5.63;;
31906;SDS011;18455;50.858;13.662;2023-05-07T15:21:10;8.35;;;5.60;;
31906;SDS011;18455;50.858;13.662;2023-05-07T15:26:11;5.63;;;4.97;;
31906;SDS011;18455;50.858;13.662;2023-05-07T15:31:11;5.97;;;4.82;;
31906;SDS011;18455;50.858;13.662;2023-05-07T15:36:12;5.78;;;4.95;;
31906;SDS011;18455;50.858;13.662;2023-05-07T15:41:12;5.93;;;5.10;;
31906;SDS011;18455;50.858;13.662;2023-05-07T15:46:13;6.97;;;4.53;;
31906;SDS011;18455;50.858;13.662;2023-05-07T15:51:17;6.28;;;4.85;;
31906;SDS011;18455;50.858;13.662;2023-05-07T15:56:17;3.90;;;3.50;;
31906;SDS011;18455;50.858;13.662;2023-05-07T16:01:18;4.13;;;3.72;;
31906;SDS011;18455;50.858;13.662;2023-05-07T16:06:18;5.45;;;3.85;;
31906;SDS011;18455;50.858;13.662;2023-05-07T16:11:19;4.70;;;3.50;;
31906;SDS011;18455;50.858;13.662;2023-05-07T16:16:19;4.65;;;4.18;;
31906;SDS011;18455;50.858;13.662;2023-05-07T16:21:20;4.40;;;4.00;;
31906;SDS011;18455;50.858;13.662;2023-05-07T16:26:20;4.65;;;4.25;;
31906;SDS011;18455;50.858;13.662;2023-05-07T16:31:20;6.13;;;4.70;;
31906;SDS011;18455;50.858;13.662;2023-05-07T16:36:21;4.95;;;4.53;;
31906;SDS011;18455;50.858;13.662;2023-05-07T16:41:21;7.68;;;5.20;;
31906;SDS011;18455;50.858;13.662;2023-05-07T16:46:22;5.82;;;4.70;;
31906;SDS011;18455;50.858;13.662;2023-05-07T16:51:22;6.20;;;5.60;;
31906;SDS011;18455;50.858;13.662;2023-05-07T16:56:23;4.88;;;4.47;;
31906;SDS011;18455;50.858;13.662;2023-05-07T17:01:23;6.88;;;4.55;;
31906;SDS011;18455;50.858;13.662;2023-05-07T17:06:24;6.07;;;4.97;;
31906;SDS011;18455;50.858;13.662;2023-05-07T17:11:24;6.50;;;5.67;;
31906;SDS011;18455;50.858;13.662;2023-05-07T17:16:29;9.63;;;5.83;;
31906;SDS011;18455;50.858;13.662;2023-05-07T17:21:30;6.37;;;4.87;;
31906;SDS011;18455;50.858;13.662;2023-05-07T17:26:30;6.17;;;5.50;;
31906;SDS011;18455;50.858;13.662;2023-05-07T17:31:33;6.80;;;5.83;;
31906;SDS011;18455;50.858;13.662;2023-05-07T17:36:33;7.50;;;6.10;;
31906;SDS011;18455;50.858;13.662;2023-05-07T17:41:37;6.87;;;5.97;;
31906;SDS011;18455;50.858;13.662;2023-05-07T17:46:37;7.63;;;6.77;;
31906;SDS011;18455;50.858;13.662;2023-05-07T17:51:38;7.60;;;6.53;;
31906;SDS011;18455;50.858;13.662;2023-05-07T17:56:38;7.77;;;6.97;;
31906;SDS011;18455;50.858;13.662;2023-05-07T18:01:39;7.57;;;6.57;;
31906;SDS011;18455;50.858;13.662;2023-05-07T18:06:41;9.33;;;6.80;;
31906;SDS011;18455;50.858;13.662;2023-05-07T18:11:41;8.20;;;7.00;;
31906;SDS011;18455;50.858;13.662;2023-05-07T18:16:41;8.13;;;6.60;;
31906;SDS011;18455;50.858;13.662;2023-05-07T18:21:42;8.43;;;7.13;;
31906;SDS011;18455;50.858;13.662;2023-05-07T18:26:42;11.87;;;6.80;;
31906;SDS011;18455;50.858;13.662;2023-05-07T18:31:42;9.20;;;7.60;;
31906;SDS011;18455;50.858;13.662;2023-05-07T18:36:43;7.80;;;7.00;;
31906;SDS011;18455;50.858;13.662;2023-05-07T18:41:43;9.20;;;7.57;;
31906;SDS011;18455;50.858;13.662;2023-05-07T18:46:44;10.80;;;8.67;;
31906;SDS011;18455;50.858;13.662;2023-05-07T18:51:47;13.17;;;9.17;;
31906;SDS011;18455;50.858;13.662;2023-05-07T18:56:47;13.27;;;9.23;;
31906;SDS011;18455;50.858;13.662;2023-05-07T19:01:48;12.80;;;7.90;;
31906;SDS011;18455;50.858;13.662;2023-05-07T19:06:48;15.60;;;9.67;;
31906;SDS011;18455;50.858;13.662;2023-05-07T19:11:49;10.80;;;8.90;;
31906;SDS011;18455;50.858;13.662;2023-05-07T19:16:49;11.60;;;9.23;;
31906;SDS011;18455;50.858;13.662;2023-05-07T19:21:49;13.07;;;9.27;;
31906;SDS011;18455;50.858;13.662;2023-05-07T19:26:50;12.73;;;9.97;;
31906;SDS011;18455;50.858;13.662;2023-05-07T19:31:50;13.60;;;10.13;;
31906;SDS011;18455;50.858;13.662;2023-05-07T19:36:50;17.30;;;12.23;;
31906;SDS011;18455;50.858;13.662;2023-05-07T19:41:51;13.47;;;9.70;;
31906;SDS011;18455;50.858;13.662;2023-05-07T19:46:51;14.10;;;9.10;;
31906;SDS011;18455;50.858;13.662;2023-05-07T19:51:51;12.63;;;10.53;;
31906;SDS011;18455;50.858;13.662;2023-05-07T19:56:52;14.77;;;11.30;;
31906;SDS011;18455;50.858;13.662;2023-05-07T20:01:52;11.27;;;7.17;;
31906;SDS011;18455;50.858;13.662;2023-05-07T20:06:52;12.30;;;9.23;;
31906;SDS011;18455;50.858;13.662;2023-05-07T20:11:53;10.87;;;9.33;;
31906;SDS011;18455;50.858;13.662;2023-05-07T20:16:53;11.13;;;9.90;;
31906;SDS011;18455;50.858;13.662;2023-05-07T20:21:54;13.33;;;9.90;;
31906;SDS011;18455;50.858;13.662;2023-05-07T20:26:54;14.23;;;10.43;;
31906;SDS011;18455;50.858;13.662;2023-05-07T20:31:54;29.47;;;16.87;;
31906;SDS011;18455;50.858;13.662;2023-05-07T20:36:55;13.23;;;11.47;;
31906;SDS011;18455;50.858;13.662;2023-05-07T20:41:55;14.10;;;12.37;;
31906;SDS011;18455;50.858;13.662;2023-05-07T20:46:58;10.33;;;8.73;;
31906;SDS011;18455;50.858;13.662;2023-05-07T20:51:59;10.83;;;9.73;;
31906;SDS011;18455;50.858;13.662;2023-05-07T20:56:59;10.23;;;8.90;;
31906;SDS011;18455;50.858;13.662;2023-05-07T21:02:00;12.23;;;8.50;;
31906;SDS011;18455;50.858;13.662;2023-05-07T21:07:01;15.57;;;9.23;;
31906;SDS011;18455;50.858;13.662;2023-05-07T21:12:01;12.30;;;9.77;;
31906;SDS011;18455;50.858;13.662;2023-05-07T21:17:02;9.50;;;8.50;;
31906;SDS011;18455;50.858;13.662;2023-05-07T21:22:05;13.27;;;9.47;;
31906;SDS011;18455;50.858;13.662;2023-05-07T21:27:05;13.13;;;10.47;;
31906;SDS011;18455;50.858;13.662;2023-05-07T21:32:05;9.90;;;8.90;;
31906;SDS011;18455;50.858;13.662;2023-05-07T21:37:06;12.00;;;8.30;;
31906;SDS011;18455;50.858;13.662;2023-05-07T21:42:06;8.70;;;7.80;;
31906;SDS011;18455;50.858;13.662;2023-05-07T21:47:07;10.87;;;9.03;;
31906;SDS011;18455;50.858;13.662;2023-05-07T21:52:14;11.47;;;8.73;;
31906;SDS011;18455;50.858;13.662;2023-05-07T21:57:14;10.07;;;8.47;;
31906;SDS011;18455;50.858;13.662;2023-05-07T22:02:15;9.30;;;8.30;;
31906;SDS011;18455;50.858;13.662;2023-05-07T22:07:15;13.20;;;9.73;;
31906;SDS011;18455;50.858;13.662;2023-05-07T22:12:15;10.73;;;9.63;;
31906;SDS011;18455;50.858;13.662;2023-05-07T22:17:16;9.87;;;8.13;;
31906;SDS011;18455;50.858;13.662;2023-05-07T22:22:16;11.03;;;8.60;;
31906;SDS011;18455;50.858;13.662;2023-05-07T22:27:18;10.90;;;8.93;;
31906;SDS011;18455;50.858;13.662;2023-05-07T22:32:18;13.37;;;9.17;;
31906;SDS011;18455;50.858;13.662;2023-05-07T22:37:18;10.03;;;8.93;;
31906;SDS011;18455;50.858;13.662;2023-05-07T22:42:19;10.47;;;8.53;;
31906;SDS011;18455;50.858;13.662;2023-05-07T22:47:19;10.13;;;8.43;;
31906;SDS011;18455;50.858;13.662;2023-05-07T22:52:19;12.13;;;9.23;;
31906;SDS011;18455;50.858;13.662;2023-05-07T22:57:20;13.67;;;9.10;;
31906;SDS011;18455;50.858;13.662;2023-05-07T23:02:20;11.77;;;9.40;;
31906;SDS011;18455;50.858;13.662;2023-05-07T23:07:21;10.80;;;8.87;;
31906;SDS011;18455;50.858;13.662;2023-05-07T23:12:21;9.73;;;8.73;;
31906;SDS011;18455;50.858;13.662;2023-05-07T23:17:22;12.13;;;9.40;;
31906;SDS011;18455;50.858;13.662;2023-05-07T23:22:22;10.73;;;8.67;;
31906;SDS011;18455;50.858;13.662;2023-05-07T23:27:23;10.80;;;9.07;;
31906;SDS011;18455;50.858;13.662;2023-05-07T23:32:23;11.47;;;9.70;;
31906;SDS011;18455;50.858;13.662;2023-05-07T23:37:23;12.30;;;9.80;;
31906;SDS011;18455;50.858;13.662;2023-05-07T23:42:24;14.40;;;9.73;;
31906;SDS011;18455;50.858;13.662;2023-05-07T23:47:24;13.40;;;9.93;;
31906;SDS011;18455;50.858;13.662;2023-05-07T23:52:25;13.27;;;8.97;;
31906;SDS011;18455;50.858;13.662;2023-05-07T23:57:25;11.87;;;8.93;;
